sensor_id;sensor_type;location;lat;lon;timestamp;pressure;altitude;pressure_sealevel;temperature;humidity
10618;BME280;5356;43.526;26.534;2022-07-10T00:00:28;98705.63;;;22.08;98.75
10618;BME280;5356;43.526;26.534;2022-07-10T00:02:54;98702.53;;;22.01;99.42
10618;BME280;5356;43.526;26.534;2022-07-10T00:05:21;98697.56;;;21.81;100.00
10618;BME280;5356;43.526;26.534;2022-07-10T00:07:48;98700.78;;;21.83;100.00
10618;BME280;5356;43.526;26.534;2022-07-10T00:10:14;98699.78;;;21.79;100.00
10618;BME280;5356;43.526;26.534;2022-07-10T00:12:39;98703.78;;;21.81;100.00
10618;BME280;5356;43.526;26.534;2022-07-10T00:15:05;98706.69;;;21.85;100.00
10618;BME280;5356;43.526;26.534;2022-07-10T00:17:32;98700.59;;;21.79;100.00
10618;BME280;5356;43.526;26.534;2022-07-10T00:19:58;98698.19;;;21.78;100.00
10618;BME280;5356;43.526;26.534;2022-07-10T00:22:24;98703.56;;;21.91;100.00
10618;BME280;5356;43.526;26.534;2022-07-10T00:24:49;98700.88;;;21.91;100.00
10618;BME280;5356;43.526;26.534;2022-07-10T00:27:18;98699.84;;;21.87;100.00
10618;BME280;5356;43.526;26.534;2022-07-10T00:29:44;98696.09;;;21.74;100.00
10618;BME280;5356;43.526;26.534;2022-07-10T00:32:10;98693.38;;;21.74;100.00
10618;BME280;5356;43.526;26.534;2022-07-10T00:34:35;98693.75;;;21.82;100.00
10618;BME280;5356;43.526;26.534;2022-07-10T00:37:02;98700.78;;;21.83;100.00
10618;BME280;5356;43.526;26.534;2022-07-10T00:39:27;98692.84;;;21.86;100.00
10618;BME280;5356;43.526;26.534;2022-07-10T00:41:53;98696.34;;;21.87;100.00
10618;BME280;5356;43.526;26.534;2022-07-10T00:44:18;98688.22;;;21.87;100.00
10618;BME280;5356;43.526;26.534;2022-07-10T00:46:44;98692.44;;;21.79;100.00
10618;BME280;5356;43.526;26.534;2022-07-10T00:49:10;98686.22;;;21.79;100.00
10618;BME280;5356;43.526;26.534;2022-07-10T00:51:36;98686.66;;;21.72;100.00
10618;BME280;5356;43.526;26.534;2022-07-10T00:54:03;98685.56;;;21.59;100.00
10618;BME280;5356;43.526;26.534;2022-07-10T00:56:30;98685.13;;;21.43;100.00
10618;BME280;5356;43.526;26.534;2022-07-10T00:58:56;98687.13;;;21.38;100.00
10618;BME280;5356;43.526;26.534;2022-07-10T01:01:22;98683.31;;;21.39;100.00
10618;BME280;5356;43.526;26.534;2022-07-10T01:03:48;98687.00;;;21.43;100.00
10618;BME280;5356;43.526;26.534;2022-07-10T01:06:14;98685.41;;;21.42;100.00
10618;BME280;5356;43.526;26.534;2022-07-10T01:08:41;98685.00;;;21.35;100.00
10618;BME280;5356;43.526;26.534;2022-07-10T01:11:08;98683.59;;;21.23;100.00
10618;BME280;5356;43.526;26.534;2022-07-10T01:13:33;98677.16;;;21.19;100.00
10618;BME280;5356;43.526;26.534;2022-07-10T01:15:59;98675.16;;;21.25;100.00
10618;BME280;5356;43.526;26.534;2022-07-10T01:18:25;98680.06;;;21.23;100.00
10618;BME280;5356;43.526;26.534;2022-07-10T01:20:57;98676.78;;;21.12;100.00
10618;BME280;5356;43.526;26.534;2022-07-10T01:23:23;98673.38;;;21.20;100.00
10618;BME280;5356;43.526;26.534;2022-07-10T01:25:49;98666.53;;;21.23;100.00
10618;BME280;5356;43.526;26.534;2022-07-10T01:28:20;98669.22;;;21.23;100.00
10618;BME280;5356;43.526;26.534;2022-07-10T01:30:46;98671.75;;;21.19;100.00
10618;BME280;5356;43.526;26.534;2022-07-10T01:33:11;98671.22;;;21.17;100.00
10618;BME280;5356;43.526;26.534;2022-07-10T01:35:37;98662.53;;;21.20;100.00
10618;BME280;5356;43.526;26.534;2022-07-10T01:38:02;98662.72;;;21.10;100.00
10618;BME280;5356;43.526;26.534;2022-07-10T01:40:28;98656.28;;;21.06;100.00
10618;BME280;5356;43.526;26.534;2022-07-10T01:42:54;98661.13;;;20.95;100.00
10618;BME280;5356;43.526;26.534;2022-07-10T01:45:19;98658.91;;;20.97;100.00
10618;BME280;5356;43.526;26.534;2022-07-10T01:47:45;98657.31;;;20.96;100.00
10618;BME280;5356;43.526;26.534;2022-07-10T01:50:11;98666.22;;;20.97;100.00
10618;BME280;5356;43.526;26.534;2022-07-10T01:52:36;98660.34;;;20.95;100.00
10618;BME280;5356;43.526;26.534;2022-07-10T01:55:03;98653.50;;;20.83;100.00
10618;BME280;5356;43.526;26.534;2022-07-10T01:57:29;98658.63;;;20.85;100.00
10618;BME280;5356;43.526;26.534;2022-07-10T01:59:55;98661.50;;;20.89;100.00
10618;BME280;5356;43.526;26.534;2022-07-10T02:02:20;98651.09;;;20.82;100.00
10618;BME280;5356;43.526;26.534;2022-07-10T02:04:46;98654.41;;;20.79;100.00
10618;BME280;5356;43.526;26.534;2022-07-10T02:07:14;98658.78;;;20.75;100.00
10618;BME280;5356;43.526;26.534;2022-07-10T02:09:41;98656.00;;;20.80;100.00
10618;BME280;5356;43.526;26.534;2022-07-10T02:12:08;98645.25;;;20.75;100.00
10618;BME280;5356;43.526;26.534;2022-07-10T02:14:35;98644.28;;;20.84;100.00
10618;BME280;5356;43.526;26.534;2022-07-10T02:17:00;98647.88;;;20.94;100.00
10618;BME280;5356;43.526;26.534;2022-07-10T02:19:26;98652.09;;;21.00;100.00
10618;BME280;5356;43.526;26.534;2022-07-10T02:21:52;98648.91;;;20.98;100.00
10618;BME280;5356;43.526;26.534;2022-07-10T02:24:17;98654.00;;;20.99;100.00
10618;BME280;5356;43.526;26.534;2022-07-10T02:26:43;98648.47;;;20.91;100.00
10618;BME280;5356;43.526;26.534;2022-07-10T02:29:09;98650.69;;;20.89;100.00
10618;BME280;5356;43.526;26.534;2022-07-10T02:31:35;98651.88;;;20.82;100.00
10618;BME280;5356;43.526;26.534;2022-07-10T02:34:14;98654.50;;;20.88;100.00
10618;BME280;5356;43.526;26.534;2022-07-10T02:36:40;98653.09;;;20.90;100.00
10618;BME280;5356;43.526;26.534;2022-07-10T02:39:06;98657.28;;;20.69;100.00
10618;BME280;5356;43.526;26.534;2022-07-10T02:41:32;98648.06;;;20.56;100.00
10618;BME280;5356;43.526;26.534;2022-07-10T02:43:58;98650.81;;;20.51;100.00
10618;BME280;5356;43.526;26.534;2022-07-10T02:46:24;98644.00;;;20.39;100.00
10618;BME280;5356;43.526;26.534;2022-07-10T02:48:50;98653.34;;;20.47;100.00
10618;BME280;5356;43.526;26.534;2022-07-10T02:51:16;98651.81;;;20.41;100.00
10618;BME280;5356;43.526;26.534;2022-07-10T02:53:41;98647.53;;;20.21;100.00
10618;BME280;5356;43.526;26.534;2022-07-10T02:56:07;98657.38;;;19.98;100.00
10618;BME280;5356;43.526;26.534;2022-07-10T02:58:33;98655.63;;;20.07;100.00
10618;BME280;5356;43.526;26.534;2022-07-10T03:00:59;98641.72;;;20.14;100.00
10618;BME280;5356;43.526;26.534;2022-07-10T03:03:24;98646.38;;;20.27;100.00
10618;BME280;5356;43.526;26.534;2022-07-10T03:05:50;98644.88;;;20.35;100.00
10618;BME280;5356;43.526;26.534;2022-07-10T03:08:16;98639.19;;;20.36;100.00
10618;BME280;5356;43.526;26.534;2022-07-10T03:10:41;98635.00;;;20.44;100.00
10618;BME280;5356;43.526;26.534;2022-07-10T03:13:07;98646.59;;;20.45;100.00
10618;BME280;5356;43.526;26.534;2022-07-10T03:15:32;98648.88;;;20.37;100.00
10618;BME280;5356;43.526;26.534;2022-07-10T03:17:58;98645.47;;;20.32;100.00
10618;BME280;5356;43.526;26.534;2022-07-10T03:20:23;98645.72;;;20.16;100.00
10618;BME280;5356;43.526;26.534;2022-07-10T03:22:49;98652.59;;;20.28;100.00
10618;BME280;5356;43.526;26.534;2022-07-10T03:25:15;98652.28;;;20.29;100.00
10618;BME280;5356;43.526;26.534;2022-07-10T03:27:40;98650.59;;;20.33;100.00
10618;BME280;5356;43.526;26.534;2022-07-10T03:30:07;98648.56;;;20.25;100.00
10618;BME280;5356;43.526;26.534;2022-07-10T03:32:32;98644.59;;;20.36;100.00
10618;BME280;5356;43.526;26.534;2022-07-10T03:34:58;98641.97;;;20.31;100.00
10618;BME280;5356;43.526;26.534;2022-07-10T03:37:24;98640.97;;;20.27;100.00
10618;BME280;5356;43.526;26.534;2022-07-10T03:39:49;98635.56;;;20.27;100.00
10618;BME280;5356;43.526;26.534;2022-07-10T03:42:15;98638.94;;;20.19;100.00
10618;BME280;5356;43.526;26.534;2022-07-10T03:44:40;98644.72;;;20.12;100.00
10618;BME280;5356;43.526;26.534;2022-07-10T03:47:06;98655.38;;;20.23;100.00
10618;BME280;5356;43.526;26.534;2022-07-10T03:49:32;98646.97;;;20.24;100.00
10618;BME280;5356;43.526;26.534;2022-07-10T03:52:02;98657.19;;;20.27;100.00
10618;BME280;5356;43.526;26.534;2022-07-10T03:54:28;98664.47;;;20.13;100.00
10618;BME280;5356;43.526;26.534;2022-07-10T03:56:55;98662.13;;;20.06;100.00
10618;BME280;5356;43.526;26.534;2022-07-10T03:59:39;98661.53;;;20.09;100.00
10618;BME280;5356;43.526;26.534;2022-07-10T04:02:05;98666.72;;;20.06;100.00
10618;BME280;5356;43.526;26.534;2022-07-10T04:04:30;98674.13;;;20.00;100.00
10618;BME280;5356;43.526;26.534;2022-07-10T04:06:56;98667.75;;;20.10;100.00
10618;BME280;5356;43.526;26.534;2022-07-10T04:09:22;98662.75;;;20.17;100.00
10618;BME280;5356;43.526;26.534;2022-07-10T04:11:47;98662.16;;;20.20;100.00
10618;BME280;5356;43.526;26.534;2022-07-10T04:14:12;98662.81;;;20.31;100.00
10618;BME280;5356;43.526;26.534;2022-07-10T04:16:38;98660.22;;;20.39;100.00
10618;BME280;5356;43.526;26.534;2022-07-10T04:19:03;98673.22;;;20.37;100.00
10618;BME280;5356;43.526;26.534;2022-07-10T04:21:29;98658.81;;;20.42;100.00
10618;BME280;5356;43.526;26.534;2022-07-10T04:23:54;98653.94;;;20.44;100.00
10618;BME280;5356;43.526;26.534;2022-07-10T04:26:20;98651.81;;;20.41;100.00
10618;BME280;5356;43.526;26.534;2022-07-10T04:28:45;98662.00;;;20.30;100.00
10618;BME280;5356;43.526;26.534;2022-07-10T04:31:11;98655.25;;;20.47;100.00
10618;BME280;5356;43.526;26.534;2022-07-10T04:33:36;98648.47;;;20.63;100.00
10618;BME280;5356;43.526;26.534;2022-07-10T04:36:02;98659.31;;;20.77;100.00
10618;BME280;5356;43.526;26.534;2022-07-10T04:38:28;98660.19;;;20.86;100.00
10618;BME280;5356;43.526;26.534;2022-07-10T04:40:54;98658.72;;;20.94;100.00
10618;BME280;5356;43.526;26.534;2022-07-10T04:43:19;98652.78;;;20.92;100.00
10618;BME280;5356;43.526;26.534;2022-07-10T04:45:45;98661.41;;;21.07;100.00
10618;BME280;5356;43.526;26.534;2022-07-10T04:48:10;98660.91;;;21.19;100.00
10618;BME280;5356;43.526;26.534;2022-07-10T04:50:36;98663.22;;;21.26;100.00
10618;BME280;5356;43.526;26.534;2022-07-10T04:53:01;98659.91;;;21.29;100.00
10618;BME280;5356;43.526;26.534;2022-07-10T04:55:27;98663.53;;;21.38;100.00
10618;BME280;5356;43.526;26.534;2022-07-10T04:57:52;98657.69;;;21.45;100.00
10618;BME280;5356;43.526;26.534;2022-07-10T05:00:18;98664.53;;;21.42;100.00
10618;BME280;5356;43.526;26.534;2022-07-10T05:02:44;98658.47;;;21.59;100.00
10618;BME280;5356;43.526;26.534;2022-07-10T05:05:09;98660.09;;;21.60;100.00
10618;BME280;5356;43.526;26.534;2022-07-10T05:07:35;98663.66;;;21.69;100.00
10618;BME280;5356;43.526;26.534;2022-07-10T05:10:00;98655.16;;;21.85;100.00
10618;BME280;5356;43.526;26.534;2022-07-10T05:12:26;98658.56;;;21.90;100.00
10618;BME280;5356;43.526;26.534;2022-07-10T05:14:51;98656.53;;;21.96;100.00
10618;BME280;5356;43.526;26.534;2022-07-10T05:17:17;98653.41;;;22.03;100.00
10618;BME280;5356;43.526;26.534;2022-07-10T05:19:43;98651.06;;;22.10;100.00
10618;BME280;5356;43.526;26.534;2022-07-10T05:22:09;98650.34;;;22.18;100.00
10618;BME280;5356;43.526;26.534;2022-07-10T05:24:35;98643.72;;;22.33;100.00
10618;BME280;5356;43.526;26.534;2022-07-10T05:27:01;98642.31;;;22.35;99.86
10618;BME280;5356;43.526;26.534;2022-07-10T05:29:26;98646.84;;;22.49;99.84
10618;BME280;5356;43.526;26.534;2022-07-10T05:31:52;98641.97;;;22.59;99.60
10618;BME280;5356;43.526;26.534;2022-07-10T05:34:17;98641.97;;;22.59;98.04
10618;BME280;5356;43.526;26.534;2022-07-10T05:36:43;98630.09;;;22.55;94.99
10618;BME280;5356;43.526;26.534;2022-07-10T05:39:08;98634.56;;;22.51;94.70
10618;BME280;5356;43.526;26.534;2022-07-10T05:41:34;98638.38;;;22.50;94.75
10618;BME280;5356;43.526;26.534;2022-07-10T05:43:59;98637.31;;;22.60;93.97
10618;BME280;5356;43.526;26.534;2022-07-10T05:46:25;98641.66;;;22.70;94.89
10618;BME280;5356;43.526;26.534;2022-07-10T05:48:51;98643.09;;;22.67;93.39
10618;BME280;5356;43.526;26.534;2022-07-10T05:51:16;98644.84;;;22.63;92.76
10618;BME280;5356;43.526;26.534;2022-07-10T05:53:42;98647.72;;;22.67;93.18
10618;BME280;5356;43.526;26.534;2022-07-10T05:56:07;98644.22;;;22.66;93.00
10618;BME280;5356;43.526;26.534;2022-07-10T05:58:33;98640.41;;;22.76;92.57
10618;BME280;5356;43.526;26.534;2022-07-10T06:00:58;98642.38;;;22.84;92.71
10618;BME280;5356;43.526;26.534;2022-07-10T06:03:24;98637.28;;;22.91;92.35
10618;BME280;5356;43.526;26.534;2022-07-10T06:05:49;98646.28;;;23.00;91.63
10618;BME280;5356;43.526;26.534;2022-07-10T06:08:15;98644.56;;;23.04;89.26
10618;BME280;5356;43.526;26.534;2022-07-10T06:10:41;98635.16;;;23.11;89.31
10618;BME280;5356;43.526;26.534;2022-07-10T06:13:22;98640.75;;;23.23;89.27
10618;BME280;5356;43.526;26.534;2022-07-10T06:15:54;98636.63;;;23.43;88.84
10618;BME280;5356;43.526;26.534;2022-07-10T06:18:20;98637.28;;;23.57;88.04
10618;BME280;5356;43.526;26.534;2022-07-10T06:20:45;98639.06;;;23.62;88.21
10618;BME280;5356;43.526;26.534;2022-07-10T06:23:11;98651.69;;;23.58;86.16
10618;BME280;5356;43.526;26.534;2022-07-10T06:25:36;98649.13;;;23.52;85.96
10618;BME280;5356;43.526;26.534;2022-07-10T06:28:02;98644.97;;;23.64;85.40
10618;BME280;5356;43.526;26.534;2022-07-10T06:30:27;98644.19;;;23.72;85.33
10618;BME280;5356;43.526;26.534;2022-07-10T06:32:53;98644.97;;;23.64;84.39
10618;BME280;5356;43.526;26.534;2022-07-10T06:35:18;98649.63;;;23.72;84.83
10618;BME280;5356;43.526;26.534;2022-07-10T06:37:44;98652.69;;;23.79;85.21
10618;BME280;5356;43.526;26.534;2022-07-10T06:40:12;98640.22;;;23.78;84.65
10618;BME280;5356;43.526;26.534;2022-07-10T06:42:39;98641.94;;;23.91;84.85
10618;BME280;5356;43.526;26.534;2022-07-10T06:45:05;98646.91;;;24.07;84.19
10618;BME280;5356;43.526;26.534;2022-07-10T06:47:30;98640.97;;;24.22;83.15
10618;BME280;5356;43.526;26.534;2022-07-10T06:50:14;98644.81;;;24.21;82.59
10618;BME280;5356;43.526;26.534;2022-07-10T06:52:40;98630.72;;;24.19;81.68
10618;BME280;5356;43.526;26.534;2022-07-10T06:55:06;98637.28;;;24.27;81.12
10618;BME280;5356;43.526;26.534;2022-07-10T06:57:32;98632.75;;;24.39;81.69
10618;BME280;5356;43.526;26.534;2022-07-10T06:59:57;98632.44;;;24.41;78.83
10618;BME280;5356;43.526;26.534;2022-07-10T07:02:23;98638.84;;;24.36;79.31
10618;BME280;5356;43.526;26.534;2022-07-10T07:04:49;98637.44;;;24.22;79.17
10618;BME280;5356;43.526;26.534;2022-07-10T07:07:15;98640.00;;;24.27;79.08
10618;BME280;5356;43.526;26.534;2022-07-10T07:09:41;98640.28;;;24.34;77.67
10618;BME280;5356;43.526;26.534;2022-07-10T07:12:08;98637.50;;;24.60;77.90
10618;BME280;5356;43.526;26.534;2022-07-10T07:14:34;98636.66;;;24.77;77.58
10618;BME280;5356;43.526;26.534;2022-07-10T07:17:00;98646.22;;;24.92;75.92
10618;BME280;5356;43.526;26.534;2022-07-10T07:19:32;98643.94;;;24.94;76.35
10618;BME280;5356;43.526;26.534;2022-07-10T07:22:19;98640.72;;;25.00;76.66
10618;BME280;5356;43.526;26.534;2022-07-10T07:25:06;98642.19;;;24.98;75.07
10618;BME280;5356;43.526;26.534;2022-07-10T07:27:36;98647.56;;;25.06;74.00
10618;BME280;5356;43.526;26.534;2022-07-10T07:30:07;98645.63;;;25.16;72.38
10618;BME280;5356;43.526;26.534;2022-07-10T07:32:34;98642.41;;;25.14;71.32
10618;BME280;5356;43.526;26.534;2022-07-10T07:35:00;98636.66;;;25.15;72.39
10618;BME280;5356;43.526;26.534;2022-07-10T07:37:39;98632.91;;;25.28;72.65
10618;BME280;5356;43.526;26.534;2022-07-10T07:40:07;98630.38;;;25.44;72.45
10618;BME280;5356;43.526;26.534;2022-07-10T07:42:34;98631.50;;;25.64;72.46
10618;BME280;5356;43.526;26.534;2022-07-10T07:44:59;98631.69;;;25.80;72.09
10618;BME280;5356;43.526;26.534;2022-07-10T07:47:25;98641.09;;;25.70;69.58
10618;BME280;5356;43.526;26.534;2022-07-10T07:49:51;98638.50;;;25.74;68.42
10618;BME280;5356;43.526;26.534;2022-07-10T07:52:17;98634.63;;;25.75;68.90
10618;BME280;5356;43.526;26.534;2022-07-10T07:54:42;98636.38;;;25.80;67.75
10618;BME280;5356;43.526;26.534;2022-07-10T07:57:08;98639.84;;;25.89;66.41
10618;BME280;5356;43.526;26.534;2022-07-10T07:59:33;98630.78;;;25.97;67.31
10618;BME280;5356;43.526;26.534;2022-07-10T08:01:59;98635.38;;;26.05;66.25
10618;BME280;5356;43.526;26.534;2022-07-10T08:04:24;98641.28;;;26.07;66.43
10618;BME280;5356;43.526;26.534;2022-07-10T08:06:50;98626.09;;;26.18;66.55
10618;BME280;5356;43.526;26.534;2022-07-10T08:09:19;98626.88;;;26.19;65.77
10618;BME280;5356;43.526;26.534;2022-07-10T08:11:45;98621.41;;;26.19;66.58
10618;BME280;5356;43.526;26.534;2022-07-10T08:14:10;98635.22;;;26.35;66.21
10618;BME280;5356;43.526;26.534;2022-07-10T08:16:36;98628.38;;;26.29;64.52
10618;BME280;5356;43.526;26.534;2022-07-10T08:19:01;98626.91;;;26.43;64.50
10618;BME280;5356;43.526;26.534;2022-07-10T08:21:27;98619.97;;;26.46;64.00
10618;BME280;5356;43.526;26.534;2022-07-10T08:23:52;98627.31;;;26.54;62.47
10618;BME280;5356;43.526;26.534;2022-07-10T08:26:19;98619.69;;;26.60;62.63
10618;BME280;5356;43.526;26.534;2022-07-10T08:28:44;98617.22;;;26.67;63.17
10618;BME280;5356;43.526;26.534;2022-07-10T08:31:10;98622.56;;;26.76;62.89
10618;BME280;5356;43.526;26.534;2022-07-10T08:33:36;98636.13;;;26.84;61.00
10618;BME280;5356;43.526;26.534;2022-07-10T08:36:01;98634.19;;;26.73;60.24
10618;BME280;5356;43.526;26.534;2022-07-10T08:38:27;98630.06;;;26.67;61.68
10618;BME280;5356;43.526;26.534;2022-07-10T08:40:54;98622.78;;;26.83;61.45
10618;BME280;5356;43.526;26.534;2022-07-10T08:43:23;98621.88;;;26.91;59.50
10618;BME280;5356;43.526;26.534;2022-07-10T08:45:50;98628.69;;;26.97;59.02
10618;BME280;5356;43.526;26.534;2022-07-10T08:48:21;98616.63;;;27.10;57.03
10618;BME280;5356;43.526;26.534;2022-07-10T08:50:47;98625.84;;;27.30;56.16
10618;BME280;5356;43.526;26.534;2022-07-10T08:53:29;98621.84;;;27.40;56.81
10618;BME280;5356;43.526;26.534;2022-07-10T08:55:58;98624.16;;;27.38;56.75
10618;BME280;5356;43.526;26.534;2022-07-10T08:58:26;98618.66;;;27.26;55.57
10618;BME280;5356;43.526;26.534;2022-07-10T09:00:52;98626.78;;;27.35;55.74
10618;BME280;5356;43.526;26.534;2022-07-10T09:03:18;98620.47;;;27.46;54.85
10618;BME280;5356;43.526;26.534;2022-07-10T09:05:44;98624.09;;;27.50;55.61
10618;BME280;5356;43.526;26.534;2022-07-10T09:08:23;98618.56;;;27.35;55.22
10618;BME280;5356;43.526;26.534;2022-07-10T09:10:48;98621.47;;;27.54;54.87
10618;BME280;5356;43.526;26.534;2022-07-10T09:13:16;98617.41;;;27.76;54.51
10618;BME280;5356;43.526;26.534;2022-07-10T09:15:48;98613.34;;;27.70;54.70
10618;BME280;5356;43.526;26.534;2022-07-10T09:18:18;98607.09;;;27.97;54.21
10618;BME280;5356;43.526;26.534;2022-07-10T09:20:44;98603.13;;;28.11;52.87
10618;BME280;5356;43.526;26.534;2022-07-10T09:23:21;98611.47;;;28.30;51.51
10618;BME280;5356;43.526;26.534;2022-07-10T09:25:50;98611.44;;;28.42;51.03
10618;BME280;5356;43.526;26.534;2022-07-10T09:28:18;98608.22;;;28.40;49.07
10618;BME280;5356;43.526;26.534;2022-07-10T09:30:45;98614.44;;;28.53;49.51
10618;BME280;5356;43.526;26.534;2022-07-10T09:33:27;98609.66;;;28.50;49.06
10618;BME280;5356;43.526;26.534;2022-07-10T09:41:23;98617.91;;;28.22;48.07
10618;BME280;5356;43.526;26.534;2022-07-10T09:43:58;98610.97;;;28.40;48.39
10618;BME280;5356;43.526;26.534;2022-07-10T09:46:36;98610.28;;;28.43;47.72
10618;BME280;5356;43.526;26.534;2022-07-10T09:49:09;98613.75;;;28.56;47.09
10618;BME280;5356;43.526;26.534;2022-07-10T09:51:46;98612.97;;;28.28;45.20
10618;BME280;5356;43.526;26.534;2022-07-10T09:54:12;98606.69;;;28.27;45.44
10618;BME280;5356;43.526;26.534;2022-07-10T09:56:50;98613.97;;;28.35;43.94
10618;BME280;5356;43.526;26.534;2022-07-10T09:59:21;98612.88;;;28.24;46.03
10618;BME280;5356;43.526;26.534;2022-07-10T10:01:49;98613.25;;;28.23;46.65
10618;BME280;5356;43.526;26.534;2022-07-10T10:04:17;98608.19;;;28.09;46.73
10618;BME280;5356;43.526;26.534;2022-07-10T10:06:45;98602.03;;;27.99;46.63
10618;BME280;5356;43.526;26.534;2022-07-10T10:11:44;98607.78;;;27.94;47.63
10618;BME280;5356;43.526;26.534;2022-07-10T10:14:10;98600.59;;;28.18;47.48
10618;BME280;5356;43.526;26.534;2022-07-10T10:16:37;98591.50;;;28.14;47.00
10618;BME280;5356;43.526;26.534;2022-07-10T10:19:03;98591.09;;;28.43;47.33
10618;BME280;5356;43.526;26.534;2022-07-10T10:21:48;98593.28;;;28.70;46.41
10618;BME280;5356;43.526;26.534;2022-07-10T10:24:14;98591.19;;;28.63;46.22
10618;BME280;5356;43.526;26.534;2022-07-10T10:26:41;98593.13;;;28.62;45.82
10618;BME280;5356;43.526;26.534;2022-07-10T10:29:08;98588.56;;;28.51;46.28
10618;BME280;5356;43.526;26.534;2022-07-10T10:31:35;98587.66;;;28.47;46.19
10618;BME280;5356;43.526;26.534;2022-07-10T10:34:00;98589.53;;;28.42;46.77
10618;BME280;5356;43.526;26.534;2022-07-10T10:39:18;98589.53;;;28.30;46.72
10618;BME280;5356;43.526;26.534;2022-07-10T10:41:50;98586.19;;;28.21;46.80
10618;BME280;5356;43.526;26.534;2022-07-10T10:47:05;98573.25;;;28.65;46.45
10618;BME280;5356;43.526;26.534;2022-07-10T10:49:50;98572.88;;;28.83;46.47
10618;BME280;5356;43.526;26.534;2022-07-10T10:52:16;98567.19;;;28.92;47.09
10618;BME280;5356;43.526;26.534;2022-07-10T10:57:43;98566.13;;;28.80;46.50
10618;BME280;5356;43.526;26.534;2022-07-10T11:00:14;98573.50;;;28.76;46.64
10618;BME280;5356;43.526;26.534;2022-07-10T11:02:40;98567.31;;;28.79;46.23
10618;BME280;5356;43.526;26.534;2022-07-10T11:08:11;98558.97;;;28.92;45.86
10618;BME280;5356;43.526;26.534;2022-07-10T11:10:44;98566.69;;;28.70;46.16
10618;BME280;5356;43.526;26.534;2022-07-10T11:13:14;98557.84;;;28.61;46.77
10618;BME280;5356;43.526;26.534;2022-07-10T11:15:42;98557.13;;;28.64;46.43
10618;BME280;5356;43.526;26.534;2022-07-10T11:18:13;98553.25;;;28.49;46.21
10618;BME280;5356;43.526;26.534;2022-07-10T11:20:44;98550.88;;;28.48;46.61
10618;BME280;5356;43.526;26.534;2022-07-10T11:25:39;98546.09;;;28.29;46.63
10618;BME280;5356;43.526;26.534;2022-07-10T11:28:10;98559.78;;;28.29;46.89
10618;BME280;5356;43.526;26.534;2022-07-10T11:30:51;98555.81;;;28.26;46.58
10618;BME280;5356;43.526;26.534;2022-07-10T11:33:18;98563.91;;;28.07;46.45
10618;BME280;5356;43.526;26.534;2022-07-10T11:35:50;98564.56;;;27.88;47.00
10618;BME280;5356;43.526;26.534;2022-07-10T11:38:20;98565.03;;;27.90;47.21
10618;BME280;5356;43.526;26.534;2022-07-10T11:40:46;98553.28;;;27.89;47.73
10618;BME280;5356;43.526;26.534;2022-07-10T11:43:12;98558.56;;;27.82;47.67
10618;BME280;5356;43.526;26.534;2022-07-10T11:45:42;98573.41;;;27.81;48.24
10618;BME280;5356;43.526;26.534;2022-07-10T11:48:17;98566.59;;;27.91;48.50
10618;BME280;5356;43.526;26.534;2022-07-10T11:50:43;98567.34;;;28.04;49.47
10618;BME280;5356;43.526;26.534;2022-07-10T11:53:09;98570.19;;;28.07;50.35
10618;BME280;5356;43.526;26.534;2022-07-10T11:55:36;98577.50;;;28.03;51.09
10618;BME280;5356;43.526;26.534;2022-07-10T11:58:22;98575.22;;;27.77;50.58
10618;BME280;5356;43.526;26.534;2022-07-10T12:00:59;98573.72;;;27.80;50.21
10618;BME280;5356;43.526;26.534;2022-07-10T12:03:26;98575.44;;;27.84;50.45
10618;BME280;5356;43.526;26.534;2022-07-10T12:05:52;98574.84;;;27.79;50.42
10618;BME280;5356;43.526;26.534;2022-07-10T12:08:18;98574.66;;;27.99;50.21
10618;BME280;5356;43.526;26.534;2022-07-10T12:10:44;98570.63;;;28.25;50.54
10618;BME280;5356;43.526;26.534;2022-07-10T12:13:13;98559.88;;;28.64;50.00
10618;BME280;5356;43.526;26.534;2022-07-10T12:15:45;98557.72;;;28.73;50.00
10618;BME280;5356;43.526;26.534;2022-07-10T12:18:19;98556.81;;;29.01;48.84
10618;BME280;5356;43.526;26.534;2022-07-10T12:20:46;98549.53;;;29.24;48.29
10618;BME280;5356;43.526;26.534;2022-07-10T12:23:16;98548.44;;;29.48;47.93
10618;BME280;5356;43.526;26.534;2022-07-10T12:25:45;98550.75;;;29.46;48.58
10618;BME280;5356;43.526;26.534;2022-07-10T12:28:11;98557.34;;;29.06;47.99
10618;BME280;5356;43.526;26.534;2022-07-10T12:30:44;98551.66;;;28.80;48.33
10618;BME280;5356;43.526;26.534;2022-07-10T12:33:14;98552.97;;;28.70;48.50
10618;BME280;5356;43.526;26.534;2022-07-10T12:35:51;98557.31;;;28.71;47.97
10618;BME280;5356;43.526;26.534;2022-07-10T12:38:24;98553.66;;;28.99;47.64
10618;BME280;5356;43.526;26.534;2022-07-10T12:41:04;98548.19;;;29.18;47.33
10618;BME280;5356;43.526;26.534;2022-07-10T12:43:31;98543.63;;;29.06;47.13
10618;BME280;5356;43.526;26.534;2022-07-10T12:46:17;98541.13;;;29.01;47.26
10618;BME280;5356;43.526;26.534;2022-07-10T12:49:04;98529.56;;;29.08;47.61
10618;BME280;5356;43.526;26.534;2022-07-10T12:51:48;98537.94;;;29.15;46.92
10618;BME280;5356;43.526;26.534;2022-07-10T12:54:33;98539.75;;;29.27;47.13
10618;BME280;5356;43.526;26.534;2022-07-10T12:56:59;98531.59;;;29.11;46.93
10618;BME280;5356;43.526;26.534;2022-07-10T12:59:26;98527.47;;;29.21;47.62
10618;BME280;5356;43.526;26.534;2022-07-10T13:01:52;98531.47;;;29.23;47.16
10618;BME280;5356;43.526;26.534;2022-07-10T13:04:27;98528.59;;;29.16;47.43
10618;BME280;5356;43.526;26.534;2022-07-10T13:06:53;98524.00;;;29.04;47.65
10618;BME280;5356;43.526;26.534;2022-07-10T13:09:24;98516.03;;;28.99;47.86
10618;BME280;5356;43.526;26.534;2022-07-10T13:11:51;98514.44;;;28.98;47.64
10618;BME280;5356;43.526;26.534;2022-07-10T13:14:18;98512.34;;;28.92;48.23
10618;BME280;5356;43.526;26.534;2022-07-10T13:16:44;98518.81;;;28.83;48.26
10618;BME280;5356;43.526;26.534;2022-07-10T13:19:09;98502.22;;;28.76;48.79